Time;durP1;ratioP1;P1;durP2;ratioP2;P2;SDS_P1;SDS_P2;PMS_P1;PMS_P2;Temp;Humidity;BMP_temperature;BMP_pressure;BME280_temperature;BME280_humidity;BME280_pressure;Samples;Min_cycle;Max_cycle;Signal;HPM_P1;HPM_P2
2022/10/22 00:02:21;;;;;;;11.50;7.35;;;15.30;99.90;;;;;;5076144;28;20404;-87
2022/10/22 00:04:47;;;;;;;11.32;7.60;;;14.50;99.90;;;;;;5076106;28;20098;-87
2022/10/22 00:07:14;;;;;;;14.70;7.75;;;14.40;99.90;;;;;;5076218;28;20048;-87
2022/10/22 00:09:40;;;;;;;11.18;7.63;;;14.40;99.90;;;;;;5076015;28;20032;-89
2022/10/22 00:12:07;;;;;;;11.48;7.07;;;14.40;99.90;;;;;;5075787;28;20089;-87
2022/10/22 00:14:32;;;;;;;10.88;7.63;;;14.50;99.90;;;;;;5075920;28;20066;-88
2022/10/22 00:16:59;;;;;;;15.00;7.80;;;14.70;99.90;;;;;;5093275;28;20070;-87
2022/10/22 00:19:26;;;;;;;10.82;7.32;;;15.10;99.90;;;;;;5073462;28;20049;-88
2022/10/22 00:21:52;;;;;;;13.65;7.43;;;14.20;99.90;;;;;;5056923;28;20056;-89
2022/10/22 00:24:18;;;;;;;11.85;7.40;;;14.50;99.90;;;;;;5073137;28;20047;-87
2022/10/22 00:26:43;;;;;;;9.98;7.28;;;14.20;99.90;;;;;;5057002;28;20040;-87
2022/10/22 00:29:09;;;;;;;10.80;7.60;;;14.20;99.90;;;;;;5055601;28;20037;-88
2022/10/22 00:31:35;;;;;;;11.32;7.82;;;14.20;99.90;;;;;;5054384;28;20051;-88
2022/10/22 00:34:01;;;;;;;12.93;7.13;;;14.10;99.90;;;;;;5080310;28;20051;-87
2022/10/22 00:36:27;;;;;;;10.90;7.45;;;14.20;99.90;;;;;;5073189;28;20037;-88
2022/10/22 00:38:52;;;;;;;10.55;6.55;;;14.20;99.90;;;;;;5054894;28;20447;-87
2022/10/22 00:41:18;;;;;;;10.25;6.93;;;14.10;99.90;;;;;;5073051;28;20515;-89
2022/10/22 00:43:58;;;;;;;10.73;7.50;;;14.40;99.90;;;;;;5085722;28;20040;-87
2022/10/22 00:46:24;;;;;;;12.02;7.70;;;14.10;99.90;;;;;;5060762;28;20037;-89
2022/10/22 00:48:50;;;;;;;11.10;8.07;;;14.10;99.90;;;;;;5089416;28;20040;-88
2022/10/22 00:51:17;;;;;;;12.88;7.57;;;14.00;99.90;;;;;;5092852;28;20048;-88
2022/10/22 00:53:48;;;;;;;11.30;7.40;;;14.20;99.90;;;;;;5065322;28;20052;-88
2022/10/22 00:56:14;;;;;;;12.18;7.93;;;15.10;99.90;;;;;;5086893;28;20048;-88
2022/10/22 00:58:46;;;;;;;12.35;7.78;;;14.00;99.90;;;;;;5092273;28;20051;-88
2022/10/22 01:01:20;;;;;;;15.02;7.85;;;14.40;99.90;;;;;;5094661;28;20056;-88
2022/10/22 01:03:47;;;;;;;13.38;8.32;;;13.90;99.90;;;;;;5101317;28;20047;-88
2022/10/22 01:06:20;;;;;;;10.90;7.75;;;15.10;99.90;;;;;;5095332;28;20161;-87
2022/10/22 01:08:56;;;;;;;11.90;7.68;;;14.70;99.90;;;;;;5074390;28;20150;-87
2022/10/22 01:12:00;;;;;;;14.77;8.20;;;14.30;99.90;;;;;;5076715;28;20052;-87
2022/10/22 01:14:50;;;;;;;11.15;7.72;;;13.90;99.90;;;;;;5096075;28;20040;-88
2022/10/22 01:17:41;;;;;;;12.23;8.25;;;13.90;99.90;;;;;;5096965;28;20342;-88
2022/10/22 01:20:31;;;;;;;10.63;7.82;;;13.90;99.90;;;;;;5098019;28;20044;-88
2022/10/22 01:23:17;;;;;;;10.00;7.03;;;13.90;99.90;;;;;;5098234;28;20055;-87
2022/10/22 01:25:59;;;;;;;13.32;7.75;;;13.90;99.90;;;;;;5096111;28;20388;-88
2022/10/22 01:28:52;;;;;;;10.52;7.50;;;13.90;99.90;;;;;;5097240;28;20044;-88
2022/10/22 01:31:22;;;;;;;14.05;7.72;;;13.80;99.90;;;;;;5097072;28;20075;-88
2022/10/22 01:33:50;;;;;;;11.20;7.90;;;13.80;99.90;;;;;;5095420;28;20047;-87
2022/10/22 01:36:17;;;;;;;11.35;7.50;;;13.80;99.90;;;;;;5096767;28;20084;-88
2022/10/22 01:38:44;;;;;;;11.30;7.65;;;14.70;99.90;;;;;;5098283;28;20056;-87
2022/10/22 01:41:10;;;;;;;12.38;7.70;;;14.10;99.90;;;;;;5080057;28;20083;-87
2022/10/22 01:43:35;;;;;;;11.07;7.25;;;13.80;99.90;;;;;;5077666;28;20082;-87
2022/10/22 01:46:04;;;;;;;12.48;7.50;;;13.80;99.90;;;;;;5111670;28;20438;-88
2022/10/22 01:48:38;;;;;;;13.65;7.53;;;13.80;99.90;;;;;;5102594;28;20043;-88
2022/10/22 01:51:22;;;;;;;12.55;7.68;;;13.80;99.90;;;;;;5078698;28;20052;-88
2022/10/22 01:54:08;;;;;;;10.25;7.00;;;13.80;99.90;;;;;;5086498;28;20105;-88
2022/10/22 01:56:57;;;;;;;11.55;7.07;;;13.80;99.90;;;;;;5045744;28;20052;-87
2022/10/22 01:59:33;;;;;;;16.15;7.95;;;13.80;99.90;;;;;;5088358;28;20039;-88
2022/10/22 02:02:12;;;;;;;;;;;13.70;99.90;;;;;;5074191;28;20144;-88
2022/10/22 02:04:57;;;;;;;9.93;6.70;;;13.70;99.90;;;;;;5088207;28;20007;-87
2022/10/22 02:07:27;;;;;;;14.55;7.60;;;13.70;99.90;;;;;;5097807;28;20491;-88
2022/10/22 02:09:54;;;;;;;11.95;7.32;;;13.80;99.90;;;;;;5077282;28;20391;-88
2022/10/22 02:12:23;;;;;;;11.70;7.45;;;13.70;99.90;;;;;;5095649;28;20044;-87
2022/10/22 02:14:50;;;;;;;14.32;7.68;;;13.90;99.90;;;;;;5077870;28;20142;-88
2022/10/22 02:17:20;;;;;;;12.20;7.32;;;14.70;99.90;;;;;;5105009;28;20046;-87
2022/10/22 02:19:55;;;;;;;12.02;7.32;;;13.70;99.90;;;;;;5117777;28;20429;-87
2022/10/22 02:22:20;;;;;;;15.25;8.25;;;13.70;99.90;;;;;;5114199;28;20039;-88
2022/10/22 02:24:48;;;;;;;13.32;7.32;;;13.60;99.90;;;;;;5077078;28;20551;-88
2022/10/22 02:27:23;;;;;;;13.02;7.40;;;13.70;99.90;;;;;;5092665;28;20412;-87
2022/10/22 02:30:06;;;;;;;12.60;7.80;;;13.60;99.90;;;;;;5087421;28;20063;-88
2022/10/22 02:32:50;;;;;;;11.35;7.78;;;13.60;99.90;;;;;;5105057;28;20044;-87
2022/10/22 02:35:20;;;;;;;10.45;7.28;;;13.70;99.90;;;;;;5096593;28;20141;-88
2022/10/22 02:37:47;;;;;;;13.27;7.53;;;13.60;99.90;;;;;;5100806;28;20462;-88
2022/10/22 02:40:13;;;;;;;15.43;7.50;;;13.60;99.90;;;;;;5097455;28;20055;-88
2022/10/22 02:42:41;;;;;;;13.80;7.80;;;13.60;99.90;;;;;;5083336;28;20036;-88
2022/10/22 02:45:07;;;;;;;14.70;7.53;;;13.60;99.90;;;;;;5094706;28;20522;-88
2022/10/22 02:47:34;;;;;;;12.57;7.43;;;13.70;99.90;;;;;;5076223;28;20493;-86
2022/10/22 02:50:00;;;;;;;14.20;7.25;;;13.70;99.90;;;;;;5095580;28;20039;-88
2022/10/22 02:52:25;;;;;;;11.52;7.22;;;13.70;99.90;;;;;;5090004;28;20404;-87
2022/10/22 02:54:51;;;;;;;17.38;7.07;;;13.70;99.90;;;;;;5108288;28;20134;-88
2022/10/22 02:57:17;;;;;;;12.25;7.47;;;13.70;99.90;;;;;;5092056;28;20039;-88
2022/10/22 02:59:42;;;;;;;10.98;7.35;;;13.70;99.90;;;;;;5115466;28;20047;-87
2022/10/22 03:02:08;;;;;;;15.68;7.80;;;13.70;99.90;;;;;;5115706;28;20032;-88
2022/10/22 03:04:33;;;;;;;12.95;7.45;;;13.70;99.90;;;;;;5115180;28;20035;-87
2022/10/22 03:06:59;;;;;;;11.90;7.38;;;13.80;99.90;;;;;;5115057;28;20052;-88
2022/10/22 03:09:25;;;;;;;12.05;7.25;;;13.80;99.90;;;;;;5076495;28;20051;-88
2022/10/22 03:11:51;;;;;;;12.30;7.20;;;13.80;99.90;;;;;;5096444;28;20070;-87
2022/10/22 03:14:17;;;;;;;12.68;7.22;;;13.70;99.90;;;;;;5096530;28;20039;-88
2022/10/22 03:16:43;;;;;;;11.23;7.40;;;13.70;99.90;;;;;;5116891;28;20043;-88
2022/10/22 03:19:08;;;;;;;11.18;6.97;;;13.70;99.90;;;;;;5115988;28;20079;-87
2022/10/22 03:21:46;;;;;;;16.05;7.55;;;13.80;99.90;;;;;;5115826;28;20071;-87
2022/10/22 03:24:16;;;;;;;17.83;7.95;;;13.70;99.90;;;;;;5114737;28;20089;-87
2022/10/22 03:26:43;;;;;;;15.63;7.75;;;13.70;99.90;;;;;;5112358;28;20040;-88
2022/10/22 03:29:14;;;;;;;12.75;7.35;;;13.70;99.90;;;;;;5095420;28;20051;-87
2022/10/22 03:31:39;;;;;;;12.90;7.03;;;13.70;99.90;;;;;;5094384;28;20441;-87
2022/10/22 03:34:05;;;;;;;17.85;7.53;;;13.70;99.90;;;;;;5113000;28;20127;-88
2022/10/22 03:36:32;;;;;;;15.18;7.97;;;13.60;99.90;;;;;;5097005;28;20463;-88
2022/10/22 03:38:59;;;;;;;11.73;7.63;;;13.60;99.90;;;;;;5080087;28;20048;-87
2022/10/22 03:41:25;;;;;;;11.82;7.60;;;13.60;99.90;;;;;;5066926;28;20488;-87
2022/10/22 03:43:52;;;;;;;12.50;7.70;;;13.60;99.90;;;;;;5080350;28;20044;-88
2022/10/22 03:46:18;;;;;;;12.68;7.60;;;13.60;99.90;;;;;;5065034;28;20062;-88
2022/10/22 03:48:44;;;;;;;10.55;7.50;;;13.60;99.90;;;;;;5076837;28;20036;-88
2022/10/22 03:51:10;;;;;;;12.65;7.60;;;13.50;99.90;;;;;;5053610;28;20448;-88
2022/10/22 03:53:36;;;;;;;14.15;7.80;;;13.50;99.90;;;;;;5055388;28;20050;-88
2022/10/22 03:56:01;;;;;;;12.85;7.68;;;14.00;99.90;;;;;;5069961;28;20446;-87
2022/10/22 03:58:27;;;;;;;13.40;7.97;;;13.50;99.90;;;;;;5046273;28;20151;-87
2022/10/22 04:00:53;;;;;;;16.17;8.10;;;13.60;99.90;;;;;;5041608;28;20044;-87
2022/10/22 04:03:18;;;;;;;14.82;8.10;;;13.40;99.90;;;;;;5058960;28;20032;-87
2022/10/22 04:05:44;;;;;;;14.15;8.15;;;13.50;99.90;;;;;;5046254;28;20044;-87
2022/10/22 04:08:10;;;;;;;15.85;7.97;;;13.70;99.90;;;;;;5069755;28;20044;-87
2022/10/22 04:10:35;;;;;;;14.40;7.57;;;13.40;99.90;;;;;;5043151;28;20044;-87
2022/10/22 04:13:01;;;;;;;15.65;7.88;;;13.40;99.90;;;;;;5086488;28;20052;-87
2022/10/22 04:15:27;;;;;;;10.07;7.57;;;13.50;99.90;;;;;;5072135;28;20037;-87
2022/10/22 04:17:54;;;;;;;14.18;8.45;;;13.90;99.90;;;;;;5045554;28;20157;-88
2022/10/22 04:20:22;;;;;;;13.65;8.27;;;13.50;99.90;;;;;;5093581;28;20051;-88
2022/10/22 04:22:49;;;;;;;13.38;7.85;;;13.50;99.90;;;;;;5075279;28;20484;-88
2022/10/22 04:25:14;;;;;;;16.88;8.98;;;13.40;99.90;;;;;;5073444;28;20040;-87
2022/10/22 04:27:40;;;;;;;13.63;8.30;;;13.40;99.90;;;;;;5081926;28;20052;-88
2022/10/22 04:30:06;;;;;;;15.15;8.90;;;13.40;99.90;;;;;;5058686;28;20485;-87
2022/10/22 04:32:32;;;;;;;13.55;7.72;;;13.30;99.90;;;;;;5081578;28;20044;-87
2022/10/22 04:34:57;;;;;;;13.82;8.10;;;14.40;99.90;;;;;;5090928;28;20471;-88
2022/10/22 04:37:23;;;;;;;15.73;8.88;;;13.40;99.90;;;;;;5055872;28;20052;-88
2022/10/22 04:39:49;;;;;;;12.15;8.35;;;13.40;99.90;;;;;;5095135;28;20500;-88
2022/10/22 04:42:14;;;;;;;13.95;9.18;;;13.80;99.90;;;;;;5095046;28;20048;-87
2022/10/22 04:44:40;;;;;;;14.48;9.02;;;13.40;99.90;;;;;;5097573;28;20100;-87
2022/10/22 04:47:05;;;;;;;13.85;8.63;;;13.90;99.90;;;;;;5079344;28;20048;-88
2022/10/22 04:49:31;;;;;;;16.98;8.90;;;13.40;99.90;;;;;;5080979;28;20079;-87
2022/10/22 04:51:57;;;;;;;13.85;8.00;;;13.30;99.90;;;;;;5100323;28;20096;-88
2022/10/22 04:54:23;;;;;;;15.65;8.48;;;13.30;99.90;;;;;;5119251;28;20035;-88
2022/10/22 04:56:49;;;;;;;17.70;8.50;;;13.30;99.90;;;;;;5118595;28;20055;-88
2022/10/22 04:59:14;;;;;;;16.13;9.05;;;14.40;99.90;;;;;;5118262;28;20039;-87
2022/10/22 05:01:42;;;;;;;15.13;8.75;;;14.20;99.90;;;;;;5118087;28;20096;-88
2022/10/22 05:04:11;;;;;;;12.15;8.98;;;14.10;99.90;;;;;;5099773;28;20146;-87
2022/10/22 05:06:37;;;;;;;15.50;9.18;;;14.10;99.90;;;;;;5082889;28;20427;-87
2022/10/22 05:09:06;;;;;;;18.55;9.07;;;13.30;99.90;;;;;;5082531;28;20092;-87
2022/10/22 05:11:35;;;;;;;14.88;9.02;;;13.30;99.90;;;;;;5117603;28;20407;-87
2022/10/22 05:14:03;;;;;;;13.80;8.68;;;13.30;99.90;;;;;;5098914;28;20087;-87
2022/10/22 05:16:30;;;;;;;17.05;8.90;;;13.20;99.90;;;;;;5118085;28;20047;-87
2022/10/22 05:18:57;;;;;;;14.77;8.55;;;13.30;99.90;;;;;;5117883;28;20046;-87
2022/10/22 05:21:23;;;;;;;15.10;8.98;;;14.00;99.90;;;;;;5118864;28;20130;-87
2022/10/22 05:23:50;;;;;;;14.07;8.98;;;13.80;99.90;;;;;;5118059;28;20040;-88
2022/10/22 05:26:18;;;;;;;14.07;8.30;;;13.30;99.90;;;;;;5118137;28;20111;-88
2022/10/22 05:28:45;;;;;;;12.73;7.75;;;14.10;99.90;;;;;;5099032;28;20048;-87
2022/10/22 05:31:12;;;;;;;14.90;8.50;;;13.90;99.90;;;;;;5082611;28;20576;-87
2022/10/22 05:33:38;;;;;;;14.02;8.65;;;13.50;99.90;;;;;;5096560;28;20051;-88
2022/10/22 05:36:05;;;;;;;14.82;9.00;;;13.30;99.90;;;;;;5096880;28;20461;-87
2022/10/22 05:38:33;;;;;;;17.75;8.82;;;13.30;99.90;;;;;;5113830;28;20058;-87
2022/10/22 05:41:10;;;;;;;15.07;8.50;;;13.30;99.90;;;;;;5110364;28;20044;-88
2022/10/22 05:43:36;;;;;;;14.85;8.57;;;14.50;99.90;;;;;;5108135;28;20039;-87
2022/10/22 05:46:13;;;;;;;17.90;9.07;;;13.30;99.90;;;;;;5099008;28;20135;-87
2022/10/22 05:48:39;;;;;;;14.15;8.45;;;13.30;99.90;;;;;;5106750;28;20035;-88
2022/10/22 05:51:08;;;;;;;13.93;8.40;;;13.40;99.90;;;;;;5108188;28;20040;-88
2022/10/22 05:53:35;;;;;;;15.10;8.68;;;13.30;99.90;;;;;;5112116;28;20510;-80
2022/10/22 05:56:03;;;;;;;13.63;8.60;;;13.30;99.90;;;;;;5115496;28;20053;-80
2022/10/22 05:58:29;;;;;;;11.88;8.45;;;13.40;99.90;;;;;;5113666;28;20036;-80
2022/10/22 06:01:00;;;;;;;14.80;8.98;;;14.10;99.90;;;;;;5092903;28;20044;-80
2022/10/22 06:03:27;;;;;;;13.52;8.23;;;13.40;99.90;;;;;;5075130;28;20142;-80
2022/10/22 06:05:53;;;;;;;15.80;8.90;;;13.40;99.90;;;;;;5095628;28;20077;-80
2022/10/22 06:08:19;;;;;;;13.68;8.20;;;13.40;99.90;;;;;;5114609;28;20079;-80
2022/10/22 06:10:44;;;;;;;13.52;8.93;;;14.20;99.90;;;;;;5098338;28;20047;-81
2022/10/22 06:13:10;;;;;;;16.33;8.63;;;13.70;99.90;;;;;;5097798;28;20200;-80
2022/10/22 06:15:35;;;;;;;14.38;8.98;;;13.90;99.90;;;;;;5115790;28;20559;-80
2022/10/22 06:18:01;;;;;;;16.73;8.68;;;14.10;99.90;;;;;;5114151;28;20028;-80
2022/10/22 06:20:27;;;;;;;13.23;8.65;;;13.40;99.90;;;;;;5113047;28;20176;-80
2022/10/22 06:22:52;;;;;;;13.75;8.98;;;14.30;99.90;;;;;;5111621;28;20067;-80
2022/10/22 06:25:18;;;;;;;17.38;9.40;;;13.50;99.90;;;;;;5114506;28;20055;-81
2022/10/22 06:27:49;;;;;;;14.13;9.05;;;13.40;99.90;;;;;;5096719;28;20075;-80
2022/10/22 06:30:14;;;;;;;13.10;8.57;;;14.20;99.90;;;;;;5115177;28;20123;-81
2022/10/22 06:32:40;;;;;;;13.93;8.98;;;13.50;99.90;;;;;;5096635;28;20105;-80
2022/10/22 06:35:06;;;;;;;14.38;8.95;;;13.50;99.90;;;;;;5115094;28;20036;-80
2022/10/22 06:37:32;;;;;;;15.65;8.52;;;13.50;99.90;;;;;;5113512;28;20087;-80
2022/10/22 06:39:57;;;;;;;15.85;8.75;;;13.90;99.90;;;;;;5097792;28;20146;-80
2022/10/22 06:42:23;;;;;;;18.13;8.93;;;14.20;99.90;;;;;;5114767;28;20040;-80
2022/10/22 06:44:48;;;;;;;15.35;9.27;;;13.70;99.90;;;;;;5113966;28;20039;-80
2022/10/22 06:47:14;;;;;;;19.65;9.15;;;13.50;99.90;;;;;;5095240;28;20096;-80
2022/10/22 06:49:40;;;;;;;18.65;9.40;;;14.40;99.90;;;;;;5095441;28;20513;-80
2022/10/22 06:52:05;;;;;;;16.80;8.57;;;13.50;99.90;;;;;;5107719;28;20040;-81
2022/10/22 06:54:31;;;;;;;14.02;8.50;;;13.60;99.90;;;;;;5096519;28;20070;-81
2022/10/22 06:56:56;;;;;;;12.85;8.50;;;13.60;99.90;;;;;;5096696;28;20058;-81
2022/10/22 06:59:22;;;;;;;13.38;8.25;;;14.10;99.90;;;;;;5079953;28;20039;-81
2022/10/22 07:01:47;;;;;;;15.57;8.77;;;14.00;99.90;;;;;;5096432;28;20112;-81
2022/10/22 07:04:13;;;;;;;13.07;7.85;;;14.70;99.90;;;;;;5113404;28;20122;-81
2022/10/22 07:06:39;;;;;;;15.10;8.13;;;13.80;99.90;;;;;;5100522;28;20051;-81
2022/10/22 07:09:05;;;;;;;14.57;7.60;;;13.80;99.90;;;;;;5092250;28;20396;-81
2022/10/22 07:11:38;;;;;;;14.02;7.60;;;13.80;99.90;;;;;;5109879;28;20047;-81
2022/10/22 07:14:04;;;;;;;18.73;7.90;;;13.90;99.90;;;;;;5113947;28;20464;-81
2022/10/22 07:16:29;;;;;;;10.95;6.78;;;13.90;99.90;;;;;;5114228;28;20050;-80
2022/10/22 07:18:55;;;;;;;11.77;7.70;;;13.90;99.90;;;;;;5114372;28;20071;-81
2022/10/22 07:21:21;;;;;;;16.25;8.25;;;13.90;99.90;;;;;;5114505;28;20047;-81
2022/10/22 07:23:47;;;;;;;12.20;7.85;;;15.10;99.90;;;;;;5095504;28;20115;-81
2022/10/22 07:26:15;;;;;;;14.60;7.45;;;14.10;99.90;;;;;;5113959;28;20081;-80
2022/10/22 07:28:40;;;;;;;11.90;6.95;;;15.00;99.90;;;;;;5107336;28;20120;-80
2022/10/22 07:31:08;;;;;;;13.88;7.13;;;14.60;99.90;;;;;;5101528;28;20131;-80
2022/10/22 07:33:34;;;;;;;14.85;7.38;;;14.20;99.90;;;;;;5095142;28;20035;-81
2022/10/22 07:36:02;;;;;;;12.65;6.90;;;14.20;99.90;;;;;;5113782;28;20092;-80
2022/10/22 07:38:28;;;;;;;11.82;6.70;;;14.20;99.90;;;;;;5095279;28;20039;-80
2022/10/22 07:40:54;;;;;;;14.20;7.38;;;14.30;99.90;;;;;;5094916;28;20044;-83
2022/10/22 07:43:20;;;;;;;16.08;7.35;;;14.20;99.90;;;;;;5058514;28;20244;-82
2022/10/22 07:45:46;;;;;;;14.07;7.30;;;14.30;99.90;;;;;;5059460;28;20048;-82
2022/10/22 07:48:12;;;;;;;15.10;6.22;;;14.30;99.90;;;;;;5093480;28;20079;-83
2022/10/22 07:50:37;;;;;;;14.38;6.65;;;14.30;99.90;;;;;;5075839;28;20125;-84
2022/10/22 07:53:03;;;;;;;18.55;7.38;;;14.30;99.90;;;;;;5094607;28;20044;-83
2022/10/22 07:55:28;;;;;;;11.77;6.85;;;14.30;99.90;;;;;;5095254;28;20059;-82
2022/10/22 07:57:54;;;;;;;13.82;6.35;;;14.30;99.90;;;;;;5093676;28;20048;-83
2022/10/22 08:00:20;;;;;;;16.08;6.60;;;14.40;99.90;;;;;;5075390;28;20113;-83
2022/10/22 08:02:45;;;;;;;12.95;6.28;;;14.40;99.90;;;;;;5093069;28;20047;-83
2022/10/22 08:05:15;;;;;;;15.93;6.78;;;14.30;99.90;;;;;;5093462;28;20051;-82
2022/10/22 08:07:41;;;;;;;13.55;6.63;;;14.40;99.90;;;;;;5094572;28;20047;-83
2022/10/22 08:10:07;;;;;;;14.43;7.43;;;14.40;99.90;;;;;;5085930;28;20114;-83
2022/10/22 08:12:33;;;;;;;15.05;6.75;;;14.40;99.90;;;;;;5095159;28;20123;-83
2022/10/22 08:14:59;;;;;;;10.73;6.78;;;14.40;99.90;;;;;;5113372;28;20530;-82
2022/10/22 08:17:25;;;;;;;11.85;6.15;;;14.80;99.90;;;;;;5108535;28;20036;-82
2022/10/22 08:19:51;;;;;;;11.20;5.88;;;14.40;99.90;;;;;;5112510;28;20071;-81
2022/10/22 08:22:17;;;;;;;13.57;7.05;;;14.40;99.90;;;;;;5114120;28;20104;-81
2022/10/22 08:24:42;;;;;;;15.27;6.40;;;14.50;99.90;;;;;;5096084;28;20449;-81
2022/10/22 08:27:08;;;;;;;11.15;5.97;;;14.40;99.90;;;;;;5094675;28;20055;-80
2022/10/22 08:29:34;;;;;;;13.98;6.15;;;14.50;99.90;;;;;;5112342;28;20114;-80
2022/10/22 08:32:01;;;;;;;14.68;6.72;;;14.50;99.90;;;;;;5111957;28;20039;-79
2022/10/22 08:34:27;;;;;;;13.38;5.97;;;;;;;;;;5113664;28;20043;-81
2022/10/22 08:36:54;;;;;;;15.60;5.90;;;;;;;;;;5114004;28;20138;-79
2022/10/22 08:39:20;;;;;;;13.73;5.00;;;;;;;;;;5109643;28;20054;-79
2022/10/22 08:42:21;;;;;;;13.63;5.50;;;;;;;;;;5112653;28;20043;-80
2022/10/22 08:44:53;;;;;;;13.07;4.72;;;;;;;;;;4993578;28;20600;-80
2022/10/22 08:47:38;;;;;;;13.40;5.13;;;;;;;;;;5079725;28;20125;-80
2022/10/22 08:50:05;;;;;;;11.32;4.57;;;;;;;;;;5092192;28;20044;-80
2022/10/22 08:52:32;;;;;;;11.50;4.32;;;;;;;;;;5092461;28;20404;-80
2022/10/22 08:54:59;;;;;;;10.90;4.10;;;;;;;;;;5092989;28;20052;-79
2022/10/22 08:57:54;;;;;;;13.13;4.07;;;;;;;;;;5092892;28;20473;-80
2022/10/22 09:00:23;;;;;;;9.25;3.97;;;;;;;;;;5073272;28;20136;-80
2022/10/22 09:03:08;;;;;;;7.65;4.03;;;;;;;;;;5093636;28;20051;-80
2022/10/22 09:05:46;;;;;;;11.55;4.35;;;;;;;;;;5090299;28;20150;-80
2022/10/22 09:08:14;;;;;;;12.18;4.03;;;;;;;;;;5093118;28;20044;-80
2022/10/22 09:10:42;;;;;;;13.23;4.18;;;;;;;;;;5111926;28;20047;-80
2022/10/22 09:13:11;;;;;;;10.27;3.80;;;;;;;;;;5111744;28;20055;-80
2022/10/22 09:15:38;;;;;;;10.60;3.80;;;;;;;;;;5094158;28;20108;-78
2022/10/22 09:18:22;;;;;;;15.27;3.90;;;;;;;;;;5104632;28;20040;-77
2022/10/22 09:20:51;;;;;;;11.75;3.50;;;;;;;;;;5073240;28;20048;-78
2022/10/22 09:23:24;;;;;;;10.10;3.70;;;;;;;;;;5074070;28;20044;-78
2022/10/22 09:25:51;;;;;;;11.95;3.55;;;;;;;;;;5091951;28;20044;-79
2022/10/22 09:28:17;;;;;;;12.27;3.70;;;;;;;;;;5110853;28;20055;-79
2022/10/22 09:30:44;;;;;;;9.68;3.63;;;;;;;;;;5116341;28;20051;-80
2022/10/22 09:33:13;;;;;;;10.07;3.80;;;;;;;;;;5115677;28;20119;-80
2022/10/22 09:35:53;;;;;;;12.32;3.38;;;;;;;;;;5102252;28;20154;-80
2022/10/22 09:38:20;;;;;;;11.63;3.33;;;;;;;;;;5095093;28;20055;-79
2022/10/22 09:40:48;;;;;;;9.70;3.80;;;;;;;;;;5078529;28;20054;-79
2022/10/22 09:43:14;;;;;;;9.45;3.20;;;;;;;;;;5078576;28;20040;-79
2022/10/22 09:45:41;;;;;;;14.25;3.65;;;;;;;;;;5061352;28;20048;-80
2022/10/22 09:48:20;;;;;;;11.80;3.65;;;;;;;;;;5095322;28;20036;-80
2022/10/22 09:50:46;;;;;;;13.02;3.38;;;;;;;;;;5078198;28;20514;-80
2022/10/22 09:53:19;;;;;;;9.27;3.67;;;;;;;;;;5078244;28;20040;-80
2022/10/22 09:55:49;;;;;;;12.10;4.25;;;;;;;;;;5077694;28;20420;-80
2022/10/22 09:58:17;;;;;;;9.25;3.67;;;;;;;;;;5060869;28;20056;-80
2022/10/22 10:00:44;;;;;;;13.85;3.90;;;;;;;;;;5078797;28;20539;-81
2022/10/22 10:03:21;;;;;;;13.98;3.67;;;;;;;;;;5078173;28;20047;-81
2022/10/22 10:05:52;;;;;;;10.07;3.67;;;;;;;;;;5095764;28;20051;-81
2022/10/22 10:08:18;;;;;;;14.50;3.75;;;;;;;;;;5076835;28;20138;-80
2022/10/22 10:11:02;;;;;;;13.40;4.05;;;;;;;;;;5095663;28;20055;-80
2022/10/22 10:13:31;;;;;;;10.77;4.00;;;;;;;;;;5095305;28;20474;-80
2022/10/22 10:16:04;;;;;;;13.32;4.53;;;;;;;;;;5096210;28;20066;-80
2022/10/22 10:18:30;;;;;;;10.23;4.05;;;;;;;;;;5106211;28;20036;-81
2022/10/22 10:21:02;;;;;;;12.38;4.28;;;;;;;;;;5098081;28;20048;-80
2022/10/22 10:23:28;;;;;;;13.13;4.00;;;;;;;;;;5096903;28;20055;-80
2022/10/22 10:25:54;;;;;;;13.55;4.45;;;;;;;;;;5076932;28;20362;-81
2022/10/22 10:28:39;;;;;;;13.20;4.38;;;;;;;;;;5094250;28;20108;-81
2022/10/22 10:31:24;;;;;;;13.02;4.63;;;;;;;;;;5076825;28;20051;-81
2022/10/22 10:33:50;;;;;;;11.25;4.60;;;;;;;;;;5058921;28;20157;-80
2022/10/22 10:36:38;;;;;;;10.63;4.40;;;;;;;;;;5094127;28;20076;-80
2022/10/22 10:39:09;;;;;;;14.73;4.60;;;;;;;;;;5074713;28;20070;-80
2022/10/22 10:41:50;;;;;;;12.98;4.88;;;;;;;;;;5077532;28;20515;-81
2022/10/22 10:44:29;;;;;;;11.00;4.78;;;;;;;;;;5078081;28;20052;-80
2022/10/22 10:47:14;;;;;;;13.38;4.90;;;;;;;;;;5094835;28;20036;-80
2022/10/22 10:49:40;;;;;;;11.15;4.88;;;;;;;;;;5095513;28;20060;-81
2022/10/22 10:52:25;;;;;;;11.93;4.78;;;;;;;;;;5094617;28;20047;-80
2022/10/22 10:55:00;;;;;;;13.07;4.75;;;;;;;;;;5076164;28;20125;-81
2022/10/22 10:57:44;;;;;;;11.73;4.65;;;;;;;;;;5076296;28;20067;-80
2022/10/22 11:00:15;;;;;;;11.10;4.78;;;;;;;;;;5093935;28;20052;-81
2022/10/22 11:02:53;;;;;;;11.80;4.63;;;;;;;;;;5093283;28;20381;-80
2022/10/22 11:05:22;;;;;;;9.80;4.57;;;;;;;;;;5076305;28;20122;-81
2022/10/22 11:07:57;;;;;;;10.90;4.47;;;;;;;;;;5075684;28;20159;-80
2022/10/22 11:10:46;;;;;;;10.25;4.63;;;;;;;;;;5095495;28;20071;-80
2022/10/22 11:13:20;;;;;;;13.63;4.88;;;;;;;;;;5064026;28;20466;-80
2022/10/22 11:15:50;;;;;;;11.65;5.05;;;;;;;;;;5093884;28;20061;-80
2022/10/22 11:18:16;;;;;;;14.07;5.10;;;;;;;;;;5099252;28;20036;-81
2022/10/22 11:20:42;;;;;;;11.50;4.90;;;;;;;;;;5115684;28;20035;-80
2022/10/22 11:23:13;;;;;;;12.73;5.03;;;;;;;;;;5113740;28;20149;-85
2022/10/22 11:25:46;;;;;;;8.02;4.97;;;;;;;;;;5080909;28;20044;-83
2022/10/22 11:28:19;;;;;;;10.45;4.78;;;;;;;;;;5077743;28;20506;-83
2022/10/22 11:30:47;;;;;;;11.27;5.20;;;;;;;;;;5100932;28;20043;-80
2022/10/22 11:33:18;;;;;;;11.63;5.18;;;;;;;;;;5089941;28;20027;-84
2022/10/22 11:35:45;;;;;;;11.63;5.43;;;;;;;;;;5108078;28;20038;-85
2022/10/22 11:38:16;;;;;;;9.55;4.50;;;;;;;;;;5107951;28;20051;-86
2022/10/22 11:40:47;;;;;;;8.75;4.18;;;;;;;;;;5088701;28;20082;-86
2022/10/22 11:43:28;;;;;;;9.30;4.43;;;;;;;;;;5114969;28;20104;-80
2022/10/22 11:46:02;;;;;;;12.73;4.45;;;;;;;;;;5096022;28;20043;-81
2022/10/22 11:48:34;;;;;;;12.20;4.88;;;;;;;;;;5104329;28;20429;-80
2022/10/22 11:51:01;;;;;;;10.80;4.63;;;;;;;;;;5076270;28;20059;-81
2022/10/22 11:53:30;;;;;;;11.60;4.32;;;;;;;;;;5101548;28;20476;-80
2022/10/22 11:55:58;;;;;;;9.93;5.20;;;;;;;;;;5096463;28;20039;-81
2022/10/22 11:58:28;;;;;;;9.85;4.90;;;;;;;;;;5113550;28;20047;-80
2022/10/22 12:00:57;;;;;;;13.27;5.68;;;;;;;;;;5112701;28;20046;-81
2022/10/22 12:03:32;;;;;;;15.20;5.63;;;;;;;;;;5113974;28;20119;-80
2022/10/22 12:06:11;;;;;;;12.68;6.45;;;;;;;;;;5095910;28;20043;-80
2022/10/22 12:08:51;;;;;;;12.93;6.75;;;;;;;;;;5084937;28;20090;-79
2022/10/22 12:11:24;;;;;;;14.40;6.63;;;;;;;;;;5095321;28;20079;-80
2022/10/22 12:14:01;;;;;;;13.48;6.28;;;;;;;;;;5111907;28;20036;-80
2022/10/22 12:16:33;;;;;;;13.57;6.18;;;;;;;;;;5076820;28;20055;-80
2022/10/22 12:19:03;;;;;;;12.52;6.22;;;;;;;;;;5091469;28;20169;-80
2022/10/22 12:21:31;;;;;;;11.23;5.40;;;;;;;;;;5075253;28;20062;-80
2022/10/22 12:23:57;;;;;;;13.23;5.20;;;;;;;;;;5094259;28;20068;-80
2022/10/22 12:26:24;;;;;;;14.65;5.97;;;;;;;;;;5074003;28;20519;-80
2022/10/22 12:28:51;;;;;;;11.95;5.55;;;;;;;;;;5079392;28;20478;-80
2022/10/22 12:31:17;;;;;;;11.05;5.45;;;;;;;;;;5081920;28;20438;-80
2022/10/22 12:33:43;;;;;;;19.67;5.60;;;;;;;;;;5112817;28;20044;-80
2022/10/22 12:36:17;;;;;;;12.98;5.40;;;;;;;;;;5112893;28;20484;-80
2022/10/22 12:38:46;;;;;;;11.27;4.97;;;;;;;;;;5076856;28;20051;-80
2022/10/22 12:41:12;;;;;;;11.75;5.45;;;;;;;;;;5094477;28;20051;-80
2022/10/22 12:43:38;;;;;;;19.20;5.25;;;;;;;;;;5093530;28;20134;-80
2022/10/22 12:46:12;;;;;;;12.23;5.40;;;;;;;;;;5113491;28;20047;-80
2022/10/22 12:48:39;;;;;;;11.15;5.03;;;;;;;;;;5114174;28;20040;-80
2022/10/22 12:51:08;;;;;;;11.27;4.82;;;;;;;;;;5096381;28;20450;-80
2022/10/22 12:53:53;;;;;;;13.23;5.18;;;;;;;;;;5078053;28;20120;-79
2022/10/22 12:56:27;;;;;;;15.53;5.47;;;;;;;;;;5078202;28;20047;-79
2022/10/22 12:59:04;;;;;;;12.00;5.40;;;;;;;;;;5112547;28;20334;-80
2022/10/22 13:01:35;;;;;;;15.40;6.00;;;;;;;;;;5078263;28;20206;-80
2022/10/22 13:04:04;;;;;;;12.85;5.10;;;;;;;;;;5116534;28;20058;-80
2022/10/22 13:06:33;;;;;;;11.18;4.30;;;;;;;;;;5097777;28;20048;-79
2022/10/22 13:08:59;;;;;;;16.88;4.35;;;;;;;;;;5116419;28;20044;-80
2022/10/22 13:11:31;;;;;;;12.43;4.07;;;;;;;;;;5116237;28;20047;-80
2022/10/22 13:14:02;;;;;;;10.93;3.85;;;;;;;;;;5096668;28;20040;-80
2022/10/22 13:16:28;;;;;;;10.90;3.90;;;;;;;;;;5114647;28;20078;-80
2022/10/22 13:18:55;;;;;;;12.63;3.90;;;;;;;;;;5097127;28;20043;-80
2022/10/22 13:21:34;;;;;;;9.55;3.70;;;;;;;;;;5116917;28;20043;-80
2022/10/22 13:24:19;;;;;;;10.70;3.45;;;;;;;;;;5117330;28;20044;-80
2022/10/22 13:26:48;;;;;;;11.73;4.00;;;;;;;;;;5113046;28;20044;-80
2022/10/22 13:29:18;;;;;;;12.43;3.90;;;;;;;;;;5091224;28;20129;-77